Time;durP1;ratioP1;P1;durP2;ratioP2;P2;SDS_P1;SDS_P2;PMS_P1;PMS_P2;Temp;Humidity;BMP_temperature;BMP_pressure;BME280_temperature;BME280_humidity;BME280_pressure;Samples;Min_cycle;Max_cycle;Signal;HPM_P1;HPM_P2
2021/12/18 00:05:58;;;;;;;0.30;0.30;;;9.10;94.60;7.90;103943.00;;;;31398705;28;20048;-74
2021/12/18 00:20:59;;;;;;;0.10;0.10;;;9.00;95.00;7.90;103926.00;;;;31434271;28;20040;-74
2021/12/18 00:36:00;;;;;;;0.20;0.20;;;9.00;95.00;7.90;103922.00;;;;31420686;28;20036;-73
2021/12/18 00:51:04;;;;;;;0.20;0.20;;;8.90;94.30;7.90;103901.00;;;;31426904;28;20427;-73
2021/12/18 01:06:06;;;;;;;0.20;0.20;;;9.00;94.50;7.80;103905.00;;;;31433830;28;20052;-73
2021/12/18 01:36:29;;;;;;;0.20;0.20;;;9.40;95.40;7.90;103908.00;;;;31432440;28;20040;-74
2021/12/18 01:51:47;;;;;;;0.20;0.20;;;9.00;94.80;7.90;103923.00;;;;31426203;28;20075;-74
2021/12/18 02:06:48;;;;;;;0.20;0.20;;;9.00;94.80;7.90;103928.00;;;;31428097;28;20037;-74
2021/12/18 02:21:50;;;;;;;0.20;0.20;;;9.00;95.40;7.90;103906.00;;;;31430954;28;20040;-74
2021/12/18 02:37:03;;;;;;;0.20;0.20;;;9.80;95.50;7.90;103900.00;;;;31424857;28;20412;-74
2021/12/18 02:52:05;;;;;;;0.20;0.20;;;9.00;94.80;7.90;103887.00;;;;31401502;28;20083;-75
2021/12/18 03:07:09;;;;;;;0.20;0.20;;;9.00;95.00;7.90;103874.00;;;;31405877;28;20032;-74
2021/12/18 03:37:36;;;;;;;0.20;0.20;;;9.10;96.20;8.00;103870.00;;;;31411319;28;20137;-75
2021/12/18 03:52:39;;;;;;;0.20;0.20;;;9.00;95.40;7.90;103861.00;;;;31427811;28;20041;-73
2021/12/18 04:07:42;;;;;;;0.20;0.20;;;9.10;95.70;8.00;103869.00;;;;31434084;28;20716;-73
2021/12/18 04:22:43;;;;;;;0.30;0.30;;;8.70;95.90;7.80;103874.00;;;;31437300;28;20888;-73
2021/12/18 04:37:45;;;;;;;0.20;0.20;;;8.90;96.10;7.70;103866.00;;;;31436354;28;20109;-74
2021/12/18 04:52:48;;;;;;;0.20;0.20;;;8.80;96.10;7.70;103873.00;;;;31418368;28;20083;-73
2021/12/18 05:07:49;;;;;;;0.30;0.30;;;8.80;95.90;7.60;103876.00;;;;31438824;28;20116;-73
2021/12/18 05:22:50;;;;;;;0.20;0.20;;;8.70;96.50;7.50;103891.00;;;;31438064;28;20051;-73
2021/12/18 05:37:54;;;;;;;0.20;0.20;;;8.70;96.60;7.70;103889.00;;;;31437976;28;20041;-73
2021/12/18 05:52:58;;;;;;;0.20;0.20;;;8.80;96.30;7.70;103884.00;;;;31427048;28;20072;-73
2021/12/18 06:08:01;;;;;;;0.20;0.20;;;8.80;96.40;7.70;103878.00;;;;31428204;28;21226;-74
2021/12/18 06:23:05;;;;;;;0.17;0.17;;;8.80;96.70;7.80;103867.00;;;;31432100;28;20524;-75
2021/12/18 06:38:06;;;;;;;0.20;0.20;;;9.80;97.10;7.90;103867.00;;;;31424810;28;20049;-74
2021/12/18 06:53:07;;;;;;;0.20;0.20;;;10.40;96.60;7.90;103864.00;;;;31392896;28;20048;-74
2021/12/18 07:08:09;;;;;;;0.17;0.17;;;9.00;96.30;7.90;103877.00;;;;31426693;28;20407;-75
2021/12/18 07:23:11;;;;;;;0.20;0.20;;;9.30;96.90;7.60;103888.00;;;;31441673;28;20114;-75
2021/12/18 07:38:13;;;;;;;0.20;0.20;;;8.70;96.90;7.40;103893.00;;;;31445647;28;20071;-74
2021/12/18 07:53:16;;;;;;;0.20;0.20;;;8.60;96.50;7.40;103891.00;;;;31427247;28;20848;-74
2021/12/18 08:08:18;;;;;;;0.20;0.20;;;8.30;96.10;7.10;103892.00;;;;31446052;28;20037;-76
2021/12/18 08:23:19;;;;;;;0.20;0.20;;;7.90;96.60;7.30;103886.00;;;;31415426;28;20041;-75
2021/12/18 08:38:20;;;;;;;0.20;0.20;;;8.90;97.30;7.40;103887.00;;;;31439079;28;20471;-75
2021/12/18 08:53:22;;;;;;;0.30;0.30;;;8.50;96.20;7.40;103893.00;;;;31438155;28;20045;-76
2021/12/18 09:08:23;;;;;;;0.20;0.20;;;8.50;96.10;7.50;103886.00;;;;31432465;28;20055;-77
2021/12/18 09:23:24;;;;;;;0.20;0.20;;;8.60;96.50;7.70;103890.00;;;;31434702;28;20780;-75
2021/12/18 09:38:25;;;;;;;0.20;0.20;;;8.80;96.40;7.70;103884.00;;;;31430579;28;20107;-76
2021/12/18 09:53:26;;;;;;;0.20;0.20;;;8.80;95.40;7.70;103884.00;;;;31425863;28;20470;-76
2021/12/18 10:08:28;;;;;;;0.20;0.20;;;8.60;95.60;7.30;103868.00;;;;31408653;28;20411;-75
2021/12/18 10:23:30;;;;;;;0.15;0.15;;;8.50;96.10;7.20;103860.00;;;;31406343;28;20051;-75
2021/12/18 10:38:45;;;;;;;0.17;0.17;;;7.90;96.00;7.10;103853.00;;;;31437716;28;20546;-76
2021/12/18 10:53:47;;;;;;;0.20;0.20;;;8.20;95.60;7.00;103847.00;;;;31400929;28;20051;-75
2021/12/18 11:09:13;;;;;;;0.20;0.20;;;7.90;95.60;6.60;103849.00;;;;31418190;28;20725;-75
2021/12/18 11:24:22;;;;;;;0.20;0.20;;;7.80;96.40;6.90;103845.00;;;;31410301;28;20048;-75
2021/12/18 11:39:29;;;;;;;0.30;0.30;;;8.00;96.30;6.70;103842.00;;;;31440563;28;20041;-76
2021/12/18 11:54:48;;;;;;;0.13;0.13;;;7.90;95.30;6.70;103822.00;;;;31415850;28;20120;-75
2021/12/18 12:10:45;;;;;;;0.13;0.13;;;7.80;95.30;6.60;103810.00;;;;31415104;28;20105;-75
2021/12/18 12:25:51;;;;;;;0.30;0.30;;;7.80;95.90;6.60;103813.00;;;;31413858;28;20067;-75
2021/12/18 12:40:56;;;;;;;0.20;0.20;;;7.70;94.90;6.50;103800.00;;;;31440692;28;20041;-75
2021/12/18 12:56:14;;;;;;;0.20;0.20;;;7.70;95.10;6.50;103791.00;;;;31421036;28;20063;-74
2021/12/18 13:11:24;;;;;;;0.20;0.20;;;7.60;94.70;6.50;103763.00;;;;31445113;28;20037;-74
2021/12/18 13:26:38;;;;;;;0.20;0.20;;;8.70;95.30;6.50;103761.00;;;;31430621;28;20075;-72
2021/12/18 13:58:30;;;;;;;0.20;0.20;;;7.80;95.20;6.60;103743.00;;;;31420654;28;20051;-75
2021/12/18 14:13:51;;;;;;;0.10;0.10;;;7.30;94.60;6.50;103733.00;;;;31442164;28;20080;-76
2021/12/18 14:28:57;;;;;;;0.20;0.20;;;7.70;94.90;6.60;103731.00;;;;31425729;28;20048;-74
2021/12/18 14:44:01;;;;;;;0.20;0.20;;;7.90;94.50;6.70;103726.00;;;;31428060;28;20135;-73
2021/12/18 14:59:17;;;;;;;0.20;0.20;;;7.60;94.80;6.80;103725.00;;;;31425631;28;20203;-73
2021/12/18 15:14:30;;;;;;;0.20;0.20;;;8.00;94.80;6.80;103720.00;;;;31403939;28;20052;-73
2021/12/18 15:29:36;;;;;;;0.20;0.20;;;8.00;95.20;6.90;103738.00;;;;31416647;28;20298;-73
2021/12/18 15:44:38;;;;;;;0.20;0.20;;;8.00;95.00;6.90;103729.00;;;;31430494;28;20068;-73
2021/12/18 15:59:41;;;;;;;0.30;0.30;;;8.10;95.50;6.80;103736.00;;;;31438299;28;20036;-74
2021/12/18 16:14:43;;;;;;;0.25;0.25;;;8.00;95.10;6.80;103727.00;;;;31425056;28;20109;-74
2021/12/18 16:29:44;;;;;;;0.30;0.30;;;7.90;95.70;6.80;103730.00;;;;31422618;28;20037;-74
2021/12/18 16:44:45;;;;;;;0.20;0.20;;;8.10;95.50;6.90;103720.00;;;;31416297;28;20040;-73
2021/12/18 16:59:48;;;;;;;0.10;0.10;;;8.10;95.70;7.00;103717.00;;;;31400117;28;20703;-74
2021/12/18 17:14:49;;;;;;;0.17;0.17;;;8.10;95.30;7.00;103710.00;;;;31425382;28;20044;-74
2021/12/18 17:29:50;;;;;;;0.10;0.10;;;8.20;95.70;7.10;103714.00;;;;31410171;28;20078;-73
2021/12/18 17:44:51;;;;;;;0.20;0.20;;;8.20;95.70;7.20;103721.00;;;;31430610;28;20060;-74
2021/12/18 17:59:52;;;;;;;0.20;0.20;;;8.30;96.40;7.00;103713.00;;;;31423814;28;20085;-73
2021/12/18 18:14:54;;;;;;;0.20;0.20;;;8.20;96.00;7.00;103713.00;;;;31420922;28;20816;-73
2021/12/18 18:29:56;;;;;;;0.20;0.20;;;8.20;96.20;6.90;103713.00;;;;31430601;28;20056;-74
2021/12/18 18:45:02;;;;;;;0.20;0.20;;;7.70;96.00;6.80;103708.00;;;;31415667;28;20098;-73
2021/12/18 19:00:06;;;;;;;0.20;0.20;;;8.00;96.40;6.90;103682.00;;;;31418763;28;20079;-73
2021/12/18 19:15:10;;;;;;;0.20;0.20;;;8.10;96.20;6.90;103674.00;;;;31392154;28;20064;-74
2021/12/18 19:30:27;;;;;;;0.22;0.22;;;8.10;96.30;7.00;103664.00;;;;31382108;28;20059;-73
2021/12/18 19:45:29;;;;;;;0.20;0.20;;;8.20;96.00;7.00;103658.00;;;;31382503;28;20117;-73
2021/12/18 20:00:33;;;;;;;0.22;0.22;;;8.10;96.40;7.00;103669.00;;;;31380581;28;20044;-73
2021/12/18 20:15:35;;;;;;;0.20;0.20;;;8.10;96.20;7.00;103640.00;;;;31416273;28;20041;-73
2021/12/18 20:30:38;;;;;;;0.20;0.20;;;8.10;96.80;7.10;103633.00;;;;31364261;28;20036;-73
2021/12/18 20:45:39;;;;;;;0.15;0.15;;;8.30;96.00;7.10;103628.00;;;;31417536;28;20127;-73
2021/12/18 21:00:53;;;;;;;0.20;0.20;;;8.90;96.80;7.10;103629.00;;;;31397205;28;20044;-74
2021/12/18 21:15:56;;;;;;;0.28;0.28;;;8.30;95.90;7.10;103627.00;;;;31440040;28;20055;-74
2021/12/18 21:30:58;;;;;;;0.20;0.20;;;8.80;96.60;7.00;103617.00;;;;31420962;28;20087;-74
2021/12/18 21:45:59;;;;;;;0.13;0.13;;;8.20;95.90;7.00;103623.00;;;;31387124;28;20044;-74
2021/12/18 22:01:02;;;;;;;0.20;0.20;;;8.20;96.50;7.00;103616.00;;;;31408909;28;20063;-73
2021/12/18 22:16:04;;;;;;;0.10;0.10;;;8.10;95.80;7.00;103600.00;;;;31362807;28;20048;-73
2021/12/18 22:31:05;;;;;;;0.30;0.30;;;8.10;95.80;7.00;103604.00;;;;31405857;28;20044;-73
2021/12/18 22:46:10;;;;;;;0.20;0.20;;;8.20;96.00;7.10;103596.00;;;;31392134;28;20052;-73
2021/12/18 23:01:27;;;;;;;0.37;0.37;;;8.20;95.70;7.10;103591.00;;;;31403465;28;20074;-72
2021/12/18 23:31:40;;;;;;;0.20;0.20;;;8.20;96.70;7.10;103548.00;;;;31408321;28;20048;-74
2021/12/18 23:46:41;;;;;;;0.20;0.20;;;8.30;95.70;7.00;103538.00;;;;31370237;28;20521;-74
